Time;durP1;ratioP1;P1;durP2;ratioP2;P2;SDS_P1;SDS_P2;PMS_P1;PMS_P2;Temp;Humidity;BMP_temperature;BMP_pressure;BME280_temperature;BME280_humidity;BME280_pressure;Samples;Min_cycle;Max_cycle;Signal;HPM_P1;HPM_P2
2022/08/25 00:01:47;;;;;;;10.80;2.47;;;;;;;20.57;90.51;99472.42;1781597;80;21085;-55
2022/08/25 00:04:16;;;;;;;10.98;3.17;;;;;;;20.56;90.92;99477.44;1778405;80;20952;-58
2022/08/25 00:06:43;;;;;;;14.00;2.98;;;;;;;20.58;90.53;99475.45;1778915;81;21480;-52
2022/08/25 00:09:12;;;;;;;10.08;2.90;;;;;;;20.56;90.27;99475.59;1778868;80;20952;-48
2022/08/25 00:11:39;;;;;;;14.87;3.37;;;;;;;20.58;90.40;99470.11;1778852;81;21407;-58
2022/08/25 00:14:13;;;;;;;8.28;3.02;;;;;;;20.60;90.11;99477.48;1779006;80;20991;-52
2022/08/25 00:16:39;;;;;;;15.25;3.33;;;;;;;20.58;89.78;99485.64;1777782;80;20991;-47
2022/08/25 00:19:10;;;;;;;8.43;2.73;;;;;;;20.54;89.99;99490.94;1779111;81;20956;-51
2022/08/25 00:21:37;;;;;;;9.85;3.27;;;;;;;20.55;89.90;99485.92;1778891;80;20974;-43
2022/08/25 00:24:04;;;;;;;11.70;2.90;;;;;;;20.57;89.96;99481.27;1779123;81;21480;-48
2022/08/25 00:26:31;;;;;;;12.47;3.02;;;;;;;20.56;89.46;99477.44;1779115;81;20956;-49
2022/08/25 00:28:56;;;;;;;12.40;3.08;;;;;;;20.51;89.11;99477.35;1757115;81;20983;-43
2022/08/25 00:31:23;;;;;;;12.20;3.10;;;;;;;20.47;89.37;99473.30;1778850;81;21025;-52
2022/08/25 00:33:50;;;;;;;11.50;2.83;;;;;;;20.49;89.19;99477.16;1779101;81;21346;-49
2022/08/25 00:36:18;;;;;;;9.15;3.05;;;;;;;20.51;89.07;99476.52;1779099;80;21035;-48
2022/08/25 00:38:46;;;;;;;10.10;2.87;;;;;;;20.53;89.37;99464.69;1778900;81;20952;-48
2022/08/25 00:41:17;;;;;;;15.13;3.17;;;;;;;20.57;90.25;99466.58;1778788;81;20963;-49
2022/08/25 00:43:55;;;;;;;11.12;2.67;;;;;;;20.60;89.64;99464.96;1778623;80;21556;-51
2022/08/25 00:46:26;;;;;;;9.10;3.22;;;;;;;20.64;89.20;99460.20;1778823;81;20984;-50
2022/08/25 00:49:00;;;;;;;11.33;3.00;;;;;;;20.68;89.13;99462.45;1778833;81;21515;-46
2022/08/25 00:51:37;;;;;;;13.68;2.80;;;;;;;20.70;88.87;99456.47;1777974;80;20995;-47
2022/08/25 00:54:05;;;;;;;10.08;2.72;;;;;;;20.72;89.00;99454.98;1775688;81;21520;-50
2022/08/25 00:56:31;;;;;;;9.70;2.85;;;;;;;20.76;88.70;99454.20;1778965;81;21011;-53
2022/08/25 00:58:58;;;;;;;12.55;2.95;;;;;;;20.78;88.71;99454.89;1778824;80;20979;-44
2022/08/25 01:01:25;;;;;;;15.25;3.08;;;;;;;20.79;88.31;99465.91;1778865;80;21062;-55
2022/08/25 01:03:51;;;;;;;7.78;2.33;;;;;;;20.74;87.91;99462.36;1779027;80;21015;-44
2022/08/25 01:06:18;;;;;;;10.88;2.52;;;;;;;20.76;88.19;99456.88;1778806;80;20983;-53
2022/08/25 01:08:44;;;;;;;15.27;2.83;;;;;;;20.77;87.68;99456.70;1779282;81;20975;-50
2022/08/25 01:11:11;;;;;;;11.20;2.95;;;;;;;20.78;87.65;99452.22;1756947;81;22248;-47
2022/08/25 01:13:43;;;;;;;7.90;2.60;;;;;;;20.80;87.41;99446.23;1778792;81;21017;-51
2022/08/25 01:16:12;;;;;;;7.30;2.67;;;;;;;20.80;87.39;99443.56;1778792;81;20983;-55
2022/08/25 01:18:51;;;;;;;12.15;2.37;;;;;;;20.81;87.23;99446.09;1778828;80;20983;-53
2022/08/25 01:21:20;;;;;;;8.08;2.30;;;;;;;20.85;86.76;99453.32;1778819;81;20990;-49
2022/08/25 01:23:47;;;;;;;10.25;2.20;;;;;;;20.85;86.55;99458.66;1778847;80;20956;-47
2022/08/25 01:26:19;;;;;;;;;;;;;;;20.84;86.87;99456.47;1781508;81;20983;-47
2022/08/25 01:31:34;;;;;;;12.20;2.45;;;;;;;20.82;87.40;99450.94;1779051;81;21062;-50
2022/08/25 01:33:59;;;;;;;;;;;;;;;20.82;87.36;99447.75;1781489;80;20991;-42
2022/08/25 01:36:28;;;;;;;17.32;2.70;;;;;;;20.81;87.03;99450.57;1779071;81;20109;-54
2022/08/25 01:38:55;;;;;;;7.25;2.25;;;;;;;20.83;86.99;99453.46;1778815;81;21039;-52
2022/08/25 01:41:35;;;;;;;14.10;3.17;;;;;;;20.84;87.85;99448.95;1779108;80;20979;-44
2022/08/25 01:44:04;;;;;;;13.43;2.65;;;;;;;20.83;87.41;99458.81;1778786;81;20967;-51
2022/08/25 01:46:31;;;;;;;10.88;2.55;;;;;;;20.81;86.87;99454.58;1778972;81;20991;-52
2022/08/25 01:49:01;;;;;;;7.05;2.40;;;;;;;20.81;86.79;99455.45;1778919;80;20963;-44
2022/08/25 01:51:32;;;;;;;9.38;2.33;;;;;;;20.84;86.76;99464.98;1778322;80;20984;-49
2022/08/25 01:53:58;;;;;;;6.42;2.10;;;;;;;20.87;86.69;99463.37;1778668;81;20987;-48
2022/08/25 01:56:24;;;;;;;5.87;1.92;;;;;;;20.88;86.46;99473.05;1778853;80;21496;-50
2022/08/25 01:58:49;;;;;;;10.28;2.15;;;;;;;20.87;87.08;99470.88;1778866;80;20987;-44
2022/08/25 02:01:22;;;;;;;6.92;2.30;;;;;;;20.86;87.69;99465.17;1778745;80;21489;-49
2022/08/25 02:03:51;;;;;;;14.45;2.08;;;;;;;20.87;86.91;99468.71;1778941;81;20980;-46
2022/08/25 02:06:28;;;;;;;10.18;2.37;;;;;;;20.86;86.66;99469.69;1778755;81;20963;-55
2022/08/25 02:08:57;;;;;;;;;;;;;;;20.86;86.78;99471.02;1780692;80;20995;-52
2022/08/25 02:11:24;;;;;;;10.23;2.62;;;;;;;20.84;87.81;99470.33;1778779;80;20480;-48
2022/08/25 02:13:51;;;;;;;12.70;2.67;;;;;;;20.85;87.97;99469.36;1778947;81;21027;-51
2022/08/25 02:16:27;;;;;;;9.93;2.72;;;;;;;20.85;88.14;99467.52;1778894;80;20999;-46
2022/08/25 02:18:55;;;;;;;7.80;2.98;;;;;;;20.86;88.21;99471.02;1779017;80;20952;-44
2022/08/25 02:21:21;;;;;;;10.13;2.75;;;;;;;20.85;88.58;99466.18;1778734;80;20959;-47
2022/08/25 02:23:48;;;;;;;10.08;2.62;;;;;;;20.86;88.83;99472.36;1779100;80;21453;-44
2022/08/25 02:26:17;;;;;;;9.50;2.60;;;;;;;20.85;88.89;99472.03;1779066;80;21469;-54
2022/08/25 02:28:43;;;;;;;10.58;2.33;;;;;;;20.85;89.18;99466.18;1778502;81;21003;-46
2022/08/25 02:31:09;;;;;;;12.28;3.30;;;;;;;20.88;88.81;99459.22;1778632;80;20999;-48
2022/08/25 02:33:36;;;;;;;15.88;3.15;;;;;;;20.89;89.06;99457.38;1778796;80;21015;-46
2022/08/25 02:36:03;;;;;;;9.68;2.70;;;;;;;20.93;88.40;99456.59;1778844;81;20986;-46
2022/08/25 02:38:29;;;;;;;;;;;;;;;20.94;87.93;99456.45;1781411;81;20967;-52
2022/08/25 02:43:29;;;;;;;10.80;2.77;;;;;;;21.00;87.39;99457.69;1818885;79;22994;-48
2022/08/25 02:45:55;;;;;;;17.00;2.75;;;;;;;20.98;87.17;99458.33;1792853;80;21149;-47
2022/08/25 02:48:22;;;;;;;15.50;3.10;;;;;;;20.95;87.05;99459.45;1793056;80;21029;-53
2022/08/25 02:50:51;;;;;;;9.78;2.60;;;;;;;20.97;87.57;99456.12;1793180;80;21014;-43
2022/08/25 02:53:20;;;;;;;12.10;2.90;;;;;;;20.97;87.48;99457.97;1792976;80;21046;-46
2022/08/25 02:55:46;;;;;;;8.23;2.80;;;;;;;20.99;87.80;99451.98;1792976;80;21431;-42
2022/08/25 02:58:14;;;;;;;18.87;2.67;;;;;;;20.98;88.05;99447.13;1792940;80;20994;-43
2022/08/25 03:00:40;;;;;;;11.63;2.85;;;;;;;20.95;88.17;99448.75;1793022;80;20955;-54
2022/08/25 03:03:06;;;;;;;11.00;3.13;;;;;;;20.94;88.31;99449.77;1793248;80;20960;-49
2022/08/25 03:05:32;;;;;;;9.60;3.02;;;;;;;20.95;88.21;99450.09;1792987;80;20991;-45
2022/08/25 03:07:58;;;;;;;13.10;3.00;;;;;;;20.96;87.91;99457.64;1792972;80;20993;-52
2022/08/25 03:10:25;;;;;;;16.02;3.15;;;;;;;20.94;88.20;99456.45;1793078;80;20995;-46
2022/08/25 03:12:51;;;;;;;14.28;3.05;;;;;;;20.92;88.41;99457.09;1793047;80;20990;-49
2022/08/25 03:15:17;;;;;;;10.93;2.62;;;;;;;20.87;88.95;99459.36;1793014;80;21070;-52
2022/08/25 03:17:44;;;;;;;13.48;2.85;;;;;;;20.87;88.50;99462.03;1793057;80;20978;-53
2022/08/25 03:20:10;;;;;;;;;;;;;;;20.86;89.38;99459.83;1795635;80;20990;-48
2022/08/25 03:22:36;;;;;;;11.53;3.35;;;;;;;20.81;89.76;99459.92;1793224;80;20156;-51
2022/08/25 03:27:49;;;;;;;15.45;2.80;;;;;;;20.78;90.15;99460.23;1793103;80;21074;-47
2022/08/25 03:30:15;;;;;;;12.98;2.72;;;;;;;20.78;90.27;99462.91;1793236;80;20962;-42
2022/08/25 03:32:41;;;;;;;13.22;2.90;;;;;;;20.78;90.22;99464.25;1792979;80;20990;-43
2022/08/25 03:35:08;;;;;;;11.85;3.30;;;;;;;20.77;90.16;99461.22;1793052;80;20995;-43
2022/08/25 03:37:35;;;;;;;15.20;3.27;;;;;;;20.77;89.64;99462.55;1793037;80;21485;-51
2022/08/25 03:40:04;;;;;;;8.30;2.87;;;;;;;20.74;90.73;99466.84;1793039;80;21445;-54
2022/08/25 03:42:30;;;;;;;12.63;2.95;;;;;;;20.71;91.21;99464.81;1786096;80;21524;-49
2022/08/25 03:44:56;;;;;;;12.53;2.98;;;;;;;20.70;91.20;99469.83;1779408;81;20987;-46
2022/08/25 03:47:25;;;;;;;14.05;3.35;;;;;;;20.68;90.58;99468.27;1779388;80;20987;-48
2022/08/25 03:49:50;;;;;;;18.20;3.58;;;;;;;20.67;90.45;99464.77;1779126;80;21473;-45
2022/08/25 03:52:17;;;;;;;15.28;3.15;;;;;;;20.61;91.53;99464.02;1779511;81;20955;-54
2022/08/25 03:54:43;;;;;;;13.10;3.40;;;;;;;20.61;91.53;99465.83;1779076;80;21026;-47
2022/08/25 03:57:10;;;;;;;9.90;3.25;;;;;;;20.57;91.52;99468.41;1778980;80;20960;-52
2022/08/25 03:59:39;;;;;;;12.37;3.17;;;;;;;20.49;92.15;99468.64;1779214;80;21027;-49
2022/08/25 04:02:06;;;;;;;14.58;3.65;;;;;;;20.46;92.00;99464.08;1778785;80;21004;-46
2022/08/25 04:04:32;;;;;;;10.13;3.25;;;;;;;20.47;91.83;99464.44;1778988;81;20995;-45
2022/08/25 04:06:58;;;;;;;18.87;4.30;;;;;;;20.47;91.80;99464.44;1778797;80;20999;-40
2022/08/25 04:09:24;;;;;;;10.10;3.10;;;;;;;20.44;91.72;99468.73;1778803;80;20995;-55
2022/08/25 04:11:51;;;;;;;13.98;4.10;;;;;;;20.42;92.46;99476.05;1778839;81;20988;-53
2022/08/25 04:14:17;;;;;;;21.70;4.30;;;;;;;20.39;92.73;99470.98;1779135;81;21460;-43
2022/08/25 04:16:44;;;;;;;15.63;4.15;;;;;;;20.38;92.69;99463.97;1778851;80;21468;-40
2022/08/25 04:19:10;;;;;;;18.30;4.45;;;;;;;20.33;92.89;99470.56;1778961;81;21084;-53
2022/08/25 04:21:37;;;;;;;12.23;4.12;;;;;;;20.28;94.22;99463.50;1778781;80;20965;-51
2022/08/25 04:24:05;;;;;;;13.98;4.25;;;;;;;20.32;93.14;99462.72;1778817;80;21508;-54
2022/08/25 04:26:40;;;;;;;17.85;4.50;;;;;;;20.29;93.71;99461.16;1778826;80;20960;-52
2022/08/25 04:29:08;;;;;;;17.75;4.15;;;;;;;20.29;93.85;99462.50;1778983;81;21035;-51
2022/08/25 04:31:37;;;;;;;16.87;5.03;;;;;;;20.29;94.08;99467.84;1778762;81;20964;-51
2022/08/25 04:34:04;;;;;;;14.60;4.62;;;;;;;20.26;93.87;99462.77;1778781;81;20995;-51
2022/08/25 04:36:31;;;;;;;9.83;4.22;;;;;;;20.24;92.81;99466.08;1778929;80;21046;-49
2022/08/25 04:38:57;;;;;;;11.38;4.90;;;;;;;20.11;96.23;99468.21;1778958;81;20975;-44
2022/08/25 04:41:24;;;;;;;19.53;4.37;;;;;;;20.17;94.35;99463.62;1778665;80;20991;-45
2022/08/25 04:43:52;;;;;;;21.27;5.58;;;;;;;20.08;95.59;99460.48;1778873;80;21520;-54
2022/08/25 04:46:23;;;;;;;;;;;;;;;19.94;97.62;99456.43;1781497;80;20995;-45
2022/08/25 04:48:51;;;;;;;15.65;5.47;;;;;;;19.99;97.62;99456.83;1778768;80;20128;-43
2022/08/25 04:51:22;;;;;;;12.70;4.75;;;;;;;20.03;96.52;99452.91;1778789;81;20973;-46
2022/08/25 04:53:49;;;;;;;13.40;5.17;;;;;;;20.04;96.74;99455.91;1778756;81;21003;-44
2022/08/25 04:56:19;;;;;;;17.45;5.10;;;;;;;20.04;96.64;99452.41;1778959;81;21031;-46
2022/08/25 04:58:46;;;;;;;15.08;4.65;;;;;;;20.02;97.52;99459.22;1778662;80;21480;-47
2022/08/25 05:01:16;;;;;;;17.42;4.92;;;;;;;20.05;96.87;99455.45;1779019;81;21479;-53
2022/08/25 05:03:44;;;;;;;13.25;4.45;;;;;;;20.01;97.89;99448.21;1778604;80;20995;-52
2022/08/25 05:06:10;;;;;;;14.87;4.20;;;;;;;20.03;97.06;99453.38;1778766;80;21042;-46
2022/08/25 05:08:36;;;;;;;11.45;3.75;;;;;;;20.01;96.87;99451.34;1778911;80;21007;-54
2022/08/25 05:11:13;;;;;;;16.30;4.30;;;;;;;20.05;96.95;99450.94;1778760;81;21003;-48
2022/08/25 05:13:39;;;;;;;18.98;4.28;;;;;;;20.11;96.43;99450.86;1778889;80;21000;-44
2022/08/25 05:16:05;;;;;;;16.55;4.28;;;;;;;20.13;96.31;99452.89;1778817;80;21039;-50
2022/08/25 05:18:33;;;;;;;14.37;4.23;;;;;;;20.19;95.76;99449.64;1779080;80;21007;-47
2022/08/25 05:21:09;;;;;;;29.95;4.47;;;;;;;20.17;96.18;99448.95;1778875;81;21444;-40
2022/08/25 05:23:36;;;;;;;18.02;5.00;;;;;;;20.11;97.00;99442.85;1778767;81;21579;-56
2022/08/25 05:26:07;;;;;;;19.62;4.62;;;;;;;20.10;97.22;99447.83;1778878;81;20999;-53
2022/08/25 05:28:33;;;;;;;14.13;4.15;;;;;;;20.04;97.53;99439.06;1777797;80;20982;-48
2022/08/25 05:31:01;;;;;;;19.52;4.17;;;;;;;20.14;96.93;99438.07;1778851;80;21528;-50
2022/08/25 05:33:28;;;;;;;17.35;4.45;;;;;;;20.20;96.44;99439.83;1778825;81;20983;-48
2022/08/25 05:35:54;;;;;;;18.40;4.53;;;;;;;20.21;96.65;99443.69;1778949;80;20991;-44
2022/08/25 05:38:21;;;;;;;11.70;4.05;;;;;;;20.30;96.86;99439.30;1778736;80;21437;-53
2022/08/25 05:40:47;;;;;;;21.77;4.37;;;;;;;20.33;96.72;99435.84;1778802;81;21547;-48
2022/08/25 05:43:14;;;;;;;16.30;3.70;;;;;;;20.38;96.86;99438.60;1783209;80;21098;-45
2022/08/25 05:45:40;;;;;;;25.23;4.08;;;;;;;20.39;96.47;99439.80;1787126;80;20986;-45
2022/08/25 05:48:06;;;;;;;21.33;4.37;;;;;;;20.48;95.79;99444.73;1787157;80;21002;-47
2022/08/25 05:50:32;;;;;;;17.17;3.98;;;;;;;20.55;95.36;99447.19;1786079;80;21023;-53
2022/08/25 05:52:58;;;;;;;14.38;3.75;;;;;;;20.57;95.41;99455.06;1785921;80;21018;-45
2022/08/25 05:55:24;;;;;;;11.95;3.52;;;;;;;20.58;94.71;99456.25;1785788;80;21030;-56
2022/08/25 05:57:49;;;;;;;18.40;3.77;;;;;;;20.64;93.94;99458.36;1786068;80;21082;-45
2022/08/25 06:00:16;;;;;;;16.82;3.85;;;;;;;20.59;94.61;99457.95;1785809;80;21034;-53
2022/08/25 06:02:48;;;;;;;12.05;3.20;;;;;;;20.64;94.20;99453.02;1787019;80;21035;-46
2022/08/25 06:05:17;;;;;;;14.78;3.52;;;;;;;20.68;94.14;99453.10;1784359;80;20979;-54
2022/08/25 06:07:45;;;;;;;10.63;3.20;;;;;;;20.65;94.72;99450.71;1786621;80;21043;-48
2022/08/25 06:10:13;;;;;;;16.23;3.15;;;;;;;20.74;93.96;99455.68;1785846;80;21414;-56
2022/08/25 06:12:45;;;;;;;19.07;3.30;;;;;;;20.75;94.26;99456.52;1785743;80;21006;-51
2022/08/25 06:15:15;;;;;;;17.52;3.35;;;;;;;20.82;94.17;99456.28;1785518;80;21062;-47
2022/08/25 06:17:42;;;;;;;10.78;2.92;;;;;;;20.84;93.98;99454.30;1786086;80;21011;-49
2022/08/25 06:20:12;;;;;;;15.78;2.98;;;;;;;20.90;93.36;99459.04;1771193;80;21022;-51
2022/08/25 06:22:38;;;;;;;16.75;3.98;;;;;;;20.99;93.06;99453.31;1767535;80;21038;-48
2022/08/25 06:25:08;;;;;;;13.88;3.33;;;;;;;21.12;92.81;99450.30;1767682;80;21589;-42
2022/08/25 06:27:34;;;;;;;14.13;3.47;;;;;;;21.12;92.29;99456.50;1769020;81;21019;-55
2022/08/25 06:30:03;;;;;;;19.85;3.67;;;;;;;21.18;91.89;99456.41;1769283;81;20987;-51
2022/08/25 06:32:35;;;;;;;16.02;3.17;;;;;;;21.19;91.63;99458.07;1768996;80;20986;-53
2022/08/25 06:35:03;;;;;;;15.93;3.70;;;;;;;21.29;91.33;99458.87;1768813;80;20979;-51
2022/08/25 06:37:29;;;;;;;20.62;3.47;;;;;;;21.36;91.04;99451.09;1767962;81;21014;-58
2022/08/25 06:39:55;;;;;;;21.85;3.62;;;;;;;21.38;90.74;99451.28;1768867;81;20959;-56
2022/08/25 06:42:21;;;;;;;14.60;3.33;;;;;;;21.42;90.60;99453.98;1768284;81;20983;-50
2022/08/25 06:44:47;;;;;;;9.00;2.80;;;;;;;21.49;90.29;99457.45;1763124;81;21022;-52
2022/08/25 06:47:14;;;;;;;15.35;3.20;;;;;;;21.47;90.46;99458.43;1762589;81;21055;-52
2022/08/25 06:49:42;;;;;;;16.82;3.02;;;;;;;21.50;90.40;99460.45;1743612;81;21530;-53
2022/08/25 06:52:09;;;;;;;12.47;2.85;;;;;;;21.57;90.19;99458.86;1763209;80;21061;-48
2022/08/25 06:54:35;;;;;;;15.90;2.42;;;;;;;21.53;90.52;99458.32;1763145;81;21054;-51
2022/08/25 06:57:01;;;;;;;19.37;3.22;;;;;;;21.43;90.58;99458.87;1762438;81;20999;-53
2022/08/25 06:59:27;;;;;;;15.20;3.52;;;;;;;21.38;90.73;99455.80;1763469;80;20999;-49
2022/08/25 07:01:53;;;;;;;17.98;4.05;;;;;;;21.55;90.20;99465.70;1763441;81;20987;-48
2022/08/25 07:04:19;;;;;;;18.80;3.42;;;;;;;21.54;90.87;99466.70;1744144;80;21006;-53
2022/08/25 07:06:45;;;;;;;15.38;4.25;;;;;;;21.66;90.10;99463.30;1763548;81;20968;-47
2022/08/25 07:09:12;;;;;;;15.35;3.95;;;;;;;21.68;90.41;99461.31;1763546;80;21519;-44
2022/08/25 07:11:44;;;;;;;16.25;4.08;;;;;;;21.77;89.96;99465.75;1763546;81;21011;-49
2022/08/25 07:14:13;;;;;;;17.70;4.12;;;;;;;21.88;89.67;99467.86;1762353;81;21062;-47
2022/08/25 07:16:40;;;;;;;21.57;3.60;;;;;;;21.93;89.42;99472.27;1762539;81;21030;-47
2022/08/25 07:19:07;;;;;;;19.67;4.65;;;;;;;21.94;89.44;99468.57;1763642;80;20971;-46
2022/08/25 07:21:37;;;;;;;20.10;3.50;;;;;;;21.99;89.27;99468.95;1762968;81;21023;-55
2022/08/25 07:24:07;;;;;;;21.95;3.98;;;;;;;22.03;89.20;99467.68;1763405;81;20964;-49
2022/08/25 07:26:36;;;;;;;26.05;3.85;;;;;;;22.08;89.33;99462.67;1763472;81;20975;-53
2022/08/25 07:29:08;;;;;;;22.65;4.35;;;;;;;22.18;89.18;99463.95;1762391;81;21551;-53
2022/08/25 07:31:34;;;;;;;17.62;3.98;;;;;;;22.23;89.01;99464.33;1762728;81;21042;-49
2022/08/25 07:36:44;;;;;;;18.85;5.08;;;;;;;22.36;88.91;99466.13;1762607;81;21532;-49
2022/08/25 07:39:10;;;;;;;21.33;4.83;;;;;;;22.36;88.61;99474.16;1763229;81;20983;-50
2022/08/25 07:41:39;;;;;;;21.30;4.35;;;;;;;22.37;88.30;99475.83;1762781;81;21006;-55
2022/08/25 07:44:06;;;;;;;26.37;4.53;;;;;;;22.44;88.28;99474.70;1770625;81;21524;-42
2022/08/25 07:46:32;;;;;;;23.65;4.28;;;;;;;22.46;88.14;99475.39;1774961;81;20975;-50
2022/08/25 07:48:58;;;;;;;21.70;4.77;;;;;;;22.37;88.69;99472.31;1774222;79;20983;-47
2022/08/25 07:51:24;;;;;;;18.67;4.42;;;;;;;22.41;88.59;99481.23;1774376;81;21030;-53
2022/08/25 07:53:50;;;;;;;18.45;4.85;;;;;;;22.49;88.36;99474.25;1774817;80;20978;-53
2022/08/25 07:56:18;;;;;;;23.75;4.67;;;;;;;22.60;88.10;99473.48;1776004;79;21017;-50
2022/08/25 07:58:44;;;;;;;;;;;;;;;22.65;87.92;99468.13;1778888;81;21058;-49
2022/08/25 08:01:16;;;;;;;22.93;4.83;;;;;;;22.67;88.23;99469.67;1776031;79;20132;-49
2022/08/25 08:03:42;;;;;;;20.60;5.05;;;;;;;22.75;88.11;99472.90;1777255;80;21041;-52
2022/08/25 08:06:11;;;;;;;18.92;4.85;;;;;;;22.84;87.58;99467.92;1776880;80;20990;-53
2022/08/25 08:08:42;;;;;;;25.27;4.87;;;;;;;22.94;87.52;99472.67;1776190;81;21002;-48
2022/08/25 08:11:16;;;;;;;16.62;4.55;;;;;;;23.02;87.37;99469.69;1776021;81;21070;-51
2022/08/25 08:13:42;;;;;;;25.23;5.12;;;;;;;23.12;87.32;99469.08;1775396;80;21070;-56
2022/08/25 08:16:14;;;;;;;23.90;5.20;;;;;;;23.07;86.18;99471.43;1776407;79;21554;-53
2022/08/25 08:18:42;;;;;;;27.73;5.47;;;;;;;23.21;86.46;99473.47;1776005;80;21700;-48
2022/08/25 08:21:18;;;;;;;29.95;5.05;;;;;;;23.24;86.14;99474.50;1776051;79;20990;-48
2022/08/25 08:23:44;;;;;;;20.62;4.62;;;;;;;23.35;86.27;99469.34;1776100;81;21671;-48
2022/08/25 08:26:10;;;;;;;44.73;5.33;;;;;;;23.42;85.78;99473.05;1777314;81;21030;-46
2022/08/25 08:28:36;;;;;;;29.63;4.80;;;;;;;23.36;85.34;99471.03;1775791;81;21119;-53
2022/08/25 08:31:03;;;;;;;27.17;5.35;;;;;;;23.40;84.95;99476.91;1776235;81;21030;-53
2022/08/25 08:33:28;;;;;;;35.13;5.37;;;;;;;23.51;85.15;99473.92;1777242;80;20991;-52
2022/08/25 08:36:00;;;;;;;23.75;4.55;;;;;;;23.61;85.19;99467.89;1777103;81;21017;-46
2022/08/25 08:38:27;;;;;;;31.52;5.58;;;;;;;23.74;84.89;99467.44;1776644;79;20997;-51
2022/08/25 08:44:54;;;;;;;21.33;4.92;;;;;;;23.97;83.84;99470.84;1769675;81;21102;-46
2022/08/25 08:47:41;;;;;;;22.75;4.53;;;;;;;24.13;83.56;99466.81;1767217;79;21535;-45
2022/08/25 08:50:46;;;;;;;19.95;5.17;;;;;;;24.22;83.01;99467.66;1767685;81;21272;-43
2022/08/25 08:53:26;;;;;;;28.20;4.97;;;;;;;24.34;82.77;99469.00;1767784;81;21543;-53
2022/08/25 08:56:00;;;;;;;38.50;5.55;;;;;;;24.34;81.63;99469.00;1767909;81;21558;-55
2022/08/25 08:58:58;;;;;;;29.07;5.03;;;;;;;24.51;82.00;99465.77;1768222;81;21631;-51
2022/08/25 09:01:32;;;;;;;22.40;4.58;;;;;;;24.68;81.86;99465.26;1767499;81;21589;-53
2022/08/25 09:04:12;;;;;;;21.23;4.53;;;;;;;24.88;81.15;99461.16;1767476;81;21002;-54
2022/08/25 09:06:46;;;;;;;28.87;4.65;;;;;;;25.06;80.81;99459.58;1767625;81;21069;-58
2022/08/25 09:09:26;;;;;;;27.42;5.35;;;;;;;25.28;80.15;99458.52;1767794;81;21002;-54
2022/08/25 09:12:16;;;;;;;19.57;4.72;;;;;;;25.39;79.09;99463.50;1763149;81;20999;-53
2022/08/25 09:15:05;;;;;;;22.80;5.15;;;;;;;25.58;78.62;99456.02;1767732;81;21034;-49
2022/08/25 09:17:55;;;;;;;25.70;4.75;;;;;;;25.86;77.92;99454.96;1767275;81;21030;-54
2022/08/25 09:21:01;;;;;;;18.85;4.62;;;;;;;26.18;77.04;99453.89;1768817;81;20971;-49
2022/08/25 09:23:56;;;;;;;26.57;5.45;;;;;;;26.58;76.62;99457.22;1767513;81;21065;-45
2022/08/25 09:26:36;;;;;;;32.10;4.62;;;;;;;27.09;74.88;99460.55;1767176;81;20999;-51
2022/08/25 09:29:10;;;;;;;27.20;5.12;;;;;;;27.74;74.21;99453.94;1767387;81;21046;-42
2022/08/25 09:31:40;;;;;;;15.53;4.20;;;;;;;28.25;73.24;99451.13;1767298;79;21066;-52
2022/08/25 09:34:14;;;;;;;19.85;4.25;;;;;;;28.73;70.10;99446.39;1767265;81;21073;-48
2022/08/25 09:36:39;;;;;;;23.40;4.95;;;;;;;29.21;69.11;99449.67;1766605;79;21042;-46
2022/08/25 09:39:06;;;;;;;25.33;4.50;;;;;;;29.72;67.28;99446.48;1768229;81;21488;-47
2022/08/25 09:41:56;;;;;;;25.10;4.72;;;;;;;30.09;66.29;99448.84;1768653;81;21013;-59
2022/08/25 09:44:33;;;;;;;17.85;5.30;;;;;;;30.45;63.87;99442.19;1765983;81;20984;-41
2022/08/25 09:47:06;;;;;;;21.65;4.15;;;;;;;30.90;62.79;99445.02;1764055;81;21484;-53
2022/08/25 09:49:40;;;;;;;26.42;4.22;;;;;;;31.05;61.09;99444.78;1738551;81;20968;-57
2022/08/25 09:52:19;;;;;;;31.10;4.50;;;;;;;31.22;60.26;99440.55;1763503;81;20999;-48
2022/08/25 09:54:46;;;;;;;32.83;5.30;;;;;;;31.34;59.61;99440.15;1763958;81;20971;-49
2022/08/25 09:57:32;;;;;;;27.30;5.08;;;;;;;31.43;58.26;99441.27;1764085;80;21402;-41
2022/08/25 10:00:21;;;;;;;15.58;3.92;;;;;;;31.41;57.11;99438.77;1764156;81;20983;-44
2022/08/25 10:03:14;;;;;;;27.07;4.78;;;;;;;31.30;56.95;99430.77;1763321;81;21030;-42
2022/08/25 10:06:03;;;;;;;27.37;4.80;;;;;;;31.31;57.07;99430.27;1764035;80;20983;-56
2022/08/25 10:08:50;;;;;;;31.62;4.65;;;;;;;31.37;56.70;99422.06;1763273;81;21015;-46
2022/08/25 10:11:41;;;;;;;18.62;5.20;;;;;;;31.44;56.44;99426.64;1762839;80;21015;-51
2022/08/25 10:14:35;;;;;;;29.20;5.00;;;;;;;31.81;55.52;99415.98;1758483;81;21008;-56
2022/08/25 10:17:23;;;;;;;19.60;4.78;;;;;;;32.31;55.68;99413.30;1762641;81;21098;-52
2022/08/25 10:19:57;;;;;;;26.12;5.12;;;;;;;32.99;53.57;99408.81;1762661;81;21550;-53
2022/08/25 10:22:33;;;;;;;24.35;5.28;;;;;;;33.39;52.86;99405.58;1759849;81;21007;-55
2022/08/25 10:25:00;;;;;;;21.97;5.33;;;;;;;33.65;49.98;99407.93;1763480;81;21070;-50
2022/08/25 10:27:51;;;;;;;15.95;4.62;;;;;;;33.75;49.32;99398.37;1763184;81;22228;-49
2022/08/25 10:30:36;;;;;;;22.87;4.80;;;;;;;33.80;50.01;99397.97;1763314;81;21046;-50
2022/08/25 10:33:26;;;;;;;19.85;4.80;;;;;;;34.25;49.02;99387.05;1763681;81;20972;-51
2022/08/25 10:36:12;;;;;;;25.90;5.08;;;;;;;34.38;48.63;99388.19;1761899;81;21646;-52
2022/08/25 10:38:57;;;;;;;18.62;4.90;;;;;;;34.50;48.33;99394.16;1762703;81;20999;-42
2022/08/25 10:42:01;;;;;;;25.57;4.67;;;;;;;34.42;47.41;99388.00;1730116;82;21572;-45
2022/08/25 10:48:00;;;;;;;25.45;4.83;;;;;;;34.48;47.40;99389.48;1657278;86;21049;-55
2022/08/25 10:50:41;;;;;;;19.15;4.70;;;;;;;34.61;46.44;99393.31;1657052;86;21081;-54
2022/08/25 10:53:37;;;;;;;22.35;4.70;;;;;;;34.55;46.54;99395.65;1656534;86;21112;-51
2022/08/25 10:56:26;;;;;;;21.27;5.20;;;;;;;34.50;46.47;99392.25;1657818;86;21121;-54
2022/08/25 10:59:15;;;;;;;28.55;5.62;;;;;;;34.55;46.19;99386.91;1656936;86;21705;-55
2022/08/25 11:02:06;;;;;;;21.02;5.42;;;;;;;34.42;47.16;99379.81;1630066;87;21152;-51
2022/08/25 11:05:01;;;;;;;25.50;5.00;;;;;;;34.71;46.68;99387.25;1630314;88;21577;-51
2022/08/25 11:07:37;;;;;;;22.90;5.20;;;;;;;35.18;46.39;99382.50;1630387;88;22236;-49
2022/08/25 11:10:23;;;;;;;22.75;5.00;;;;;;;35.75;45.30;99384.93;1631727;88;21578;-41
2022/08/25 11:13:00;;;;;;;22.60;4.75;;;;;;;36.12;44.66;99380.30;1631050;88;21593;-45
2022/08/25 11:15:34;;;;;;;24.85;5.00;;;;;;;36.38;43.92;99376.59;1643256;86;21525;-50
2022/08/25 11:18:08;;;;;;;24.92;4.37;;;;;;;36.77;43.87;99376.61;1667290;85;21003;-44
2022/08/25 11:21:01;;;;;;;23.85;4.97;;;;;;;37.00;42.02;99370.01;1686186;85;21089;-43
2022/08/25 11:23:38;;;;;;;26.42;4.65;;;;;;;37.01;41.38;99371.67;1686603;85;21170;-49
2022/08/25 11:26:13;;;;;;;18.02;5.00;;;;;;;37.55;40.89;99372.23;1685936;85;21698;-52
2022/08/25 11:29:09;;;;;;;24.05;4.72;;;;;;;37.89;40.07;99365.97;1686134;85;21054;-48
2022/08/25 11:31:40;;;;;;;31.73;5.53;;;;;;;38.02;38.86;99360.56;1685994;85;21050;-43
2022/08/25 11:34:10;;;;;;;18.23;4.85;;;;;;;38.19;38.63;99358.52;1686743;85;21003;-50
2022/08/25 11:36:42;;;;;;;23.07;5.12;;;;;;;38.70;38.36;99359.36;1752183;81;21065;-42
2022/08/25 11:39:34;;;;;;;23.75;4.62;;;;;;;38.79;37.15;99367.91;1776950;81;21610;-42
2022/08/25 11:42:37;;;;;;;15.63;3.90;;;;;;;39.16;36.83;99358.70;1776561;81;21003;-51
2022/08/25 11:45:26;;;;;;;18.98;4.35;;;;;;;39.42;36.74;99359.55;1767427;81;21059;-52
2022/08/25 11:48:10;;;;;;;29.65;5.30;;;;;;;39.91;36.18;99360.98;1751646;81;20999;-42
2022/08/25 11:51:01;;;;;;;21.80;4.50;;;;;;;40.09;35.47;99354.89;1762601;81;21436;-53
2022/08/25 11:53:32;;;;;;;20.40;5.12;;;;;;;40.51;34.80;99347.93;1763115;81;21057;-39
2022/08/25 11:56:11;;;;;;;20.65;4.97;;;;;;;40.60;33.86;99351.75;1763002;80;21018;-48
2022/08/25 11:58:48;;;;;;;28.65;5.45;;;;;;;40.74;33.33;99351.41;1763358;80;21031;-51
2022/08/25 12:01:44;;;;;;;24.43;4.17;;;;;;;41.01;32.56;99353.78;1763839;81;20979;-43
2022/08/25 12:04:38;;;;;;;16.77;4.83;;;;;;;41.48;31.78;99355.70;1763267;80;20975;-52
2022/08/25 12:07:15;;;;;;;18.85;4.35;;;;;;;41.38;31.44;99358.53;1764161;81;21007;-48